Leimuiden, Netherlands
Current Conditions -  °F | °C
As of 2:25 PM on Sunday 23 Nov 2014 (Local Time) from EHAM Reporting Station
Clear Clear  
Wind Chill: 55°   Ceiling: Unl
Heat Index: 55°   Visibility: 6mi
Dew Point: 52°   Wind: 12mph
Humidity: 88%   Direction: 160°SSE
Pressure: 29.94"   Gusts: NA
Location:  52.22°N, 4.67°E
Report Text: EHAM 231325Z 16010KT CAVOK 13/11 Q1014 NOSIG
Loading
Personal Weather Stations






























Interactive Weather Map New forecast layout! Learn more

10-Day Weather Forecast

Advertisements
Track Severe Weather on mobile